Time;durP1;ratioP1;P1;durP2;ratioP2;P2;SDS_P1;SDS_P2;PMS_P1;PMS_P2;Temp;Humidity;BMP_temperature;BMP_pressure;BME280_temperature;BME280_humidity;BME280_pressure;Samples;Min_cycle;Max_cycle;Signal;HPM_P1;HPM_P2
2022/08/11 00:00:08;;;;;;;;;10.40;10.40;;;;;28.39;27.67;101205.44;4864588;29;45420;-55
2022/08/11 00:02:45;;;;;;;;;10.20;10.20;;;;;28.40;27.29;101207.09;4863407;29;46394;-55
2022/08/11 00:05:16;;;;;;;;;10.80;10.80;;;;;28.37;27.25;101201.28;4847662;29;45401;-55
2022/08/11 00:08:00;;;;;;;;;12.00;10.00;;;;;28.35;27.20;101203.59;4832259;29;45348;-56
2022/08/11 00:10:27;;;;;;;;;14.40;14.20;;;;;28.28;27.26;101199.22;4847302;29;45340;-56
2022/08/11 00:13:00;;;;;;;;;10.00;10.00;;;;;28.21;27.19;101193.22;4846928;29;46568;-56
2022/08/11 00:15:28;;;;;;;;;9.80;9.80;;;;;28.21;27.48;101200.81;4863645;29;45337;-57
2022/08/11 00:17:57;;;;;;;;;9.00;8.40;;;;;28.29;27.96;101205.72;4831833;29;45399;-57
2022/08/11 00:20:27;;;;;;;;;10.40;10.40;;;;;28.21;28.09;101197.97;4832274;29;45497;-56
2022/08/11 00:23:00;;;;;;;;;11.40;11.00;;;;;28.12;28.00;101203.59;4831698;29;46034;-55
2022/08/11 00:25:25;;;;;;;;;11.00;8.40;;;;;28.09;27.84;101195.75;4832106;29;45387;-52
2022/08/11 00:27:51;;;;;;;;;10.25;10.25;;;;;28.04;27.61;101196.72;4831750;29;45384;-55
2022/08/11 00:30:16;;;;;;;;;7.25;7.25;;;;;28.05;27.51;101191.94;4863495;29;45337;-52
2022/08/11 00:32:44;;;;;;;;;10.25;9.00;;;;;27.90;27.63;101176.22;4846821;29;46121;-56
2022/08/11 00:35:14;;;;;;;;;8.80;8.80;;;;;27.80;27.79;101172.47;4846674;29;45307;-55
2022/08/11 00:37:44;;;;;;;;;7.40;7.00;;;;;27.96;28.09;101192.66;4831243;29;45416;-56
2022/08/11 00:40:16;;;;;;;;;10.00;10.00;;;;;27.99;28.09;101205.31;4831796;29;45516;-54
2022/08/11 00:43:08;;;;;;;;;8.60;7.40;;;;;28.03;28.33;101203.53;4831353;29;47529;-56
2022/08/11 00:45:38;;;;;;;;;8.40;8.00;;;;;28.05;27.91;101198.38;4863110;29;45519;-53
2022/08/11 00:48:06;;;;;;;;;9.00;9.00;;;;;28.03;27.93;101205.50;4863630;29;45515;-55
2022/08/11 00:51:13;;;;;;;;;10.80;10.20;;;;;28.07;27.84;101203.72;4837775;29;45656;-55
2022/08/11 00:54:20;;;;;;;;;8.20;8.20;;;;;27.99;27.65;101206.16;4861877;29;46481;-56
2022/08/11 00:57:04;;;;;;;;;10.00;10.00;;;;;27.98;27.93;101207.31;4827541;29;45611;-55
2022/08/11 00:59:38;;;;;;;;;9.80;8.00;;;;;28.05;27.79;101203.22;4863211;29;45445;-52
2022/08/11 01:02:35;;;;;;;;;10.80;10.00;;;;;28.02;27.56;101207.50;4863666;29;45527;-55
2022/08/11 01:05:09;;;;;;;;;9.20;9.20;;;;;27.97;28.34;101202.78;4862010;29;45706;-55
2022/08/11 01:07:34;;;;;;;;;10.40;10.40;;;;;27.93;28.25;101196.16;4863103;29;45289;-55
2022/08/11 01:10:54;;;;;;;;;12.25;10.75;;;;;27.94;28.35;101197.81;4862611;29;47182;-54
2022/08/11 01:13:38;;;;;;;;;10.00;10.00;;;;;27.95;28.19;101202.28;4786851;29;45568;-51
2022/08/11 01:16:40;;;;;;;;;11.20;10.60;;;;;27.95;28.29;101207.94;4856091;29;46717;-51
2022/08/11 01:19:09;;;;;;;;;9.80;9.40;;;;;28.03;27.95;101206.34;4861146;29;45375;-54
2022/08/11 01:21:56;;;;;;;;;9.60;9.60;;;;;28.04;27.97;101196.72;4862986;29;45282;-55
2022/08/11 01:24:41;;;;;;;;;8.40;8.40;;;;;27.96;27.60;101194.69;4862882;29;45735;-53
2022/08/11 01:27:35;;;;;;;;;10.60;10.20;;;;;27.93;28.20;101198.97;4862129;29;45867;-56
2022/08/11 01:30:25;;;;;;;;;10.20;9.20;;;;;27.75;28.31;101172.63;4837867;29;45668;-55
2022/08/11 01:33:18;;;;;;;;;11.80;9.00;;;;;27.83;28.64;101200.06;4863053;29;45310;-55
2022/08/11 01:36:19;;;;;;;;;10.00;10.00;;;;;27.81;27.81;101193.91;4832007;29;45446;-56
2022/08/11 01:39:09;;;;;;;;;9.60;9.60;;;;;27.76;28.12;101199.66;4860845;29;46684;-55
2022/08/11 01:44:41;;;;;;;;;9.00;8.20;;;;;27.56;28.15;101196.13;4835176;29;45433;-53
2022/08/11 01:50:24;;;;;;;;;1.80;1.20;;;;;27.51;28.25;101193.44;4847936;29;45952;-53
2022/08/11 01:52:58;;;;;;;;;8.80;7.80;;;;;27.27;28.70;101176.78;4862009;29;45290;-56
2022/08/11 01:55:56;;;;;;;;;9.20;9.20;;;;;27.36;28.46;101200.25;4861961;29;45440;-55
2022/08/11 01:58:59;;;;;;;;;7.20;7.20;;;;;27.33;28.65;101204.53;4862324;29;45366;-55
2022/08/11 02:01:43;;;;;;;;;10.40;9.20;;;;;27.36;28.47;101203.06;4799237;29;45627;-53
2022/08/11 02:04:41;;;;;;;;;10.00;9.20;;;;;27.39;28.25;101191.16;4861513;29;45460;-55
2022/08/11 02:07:31;;;;;;;;;9.00;9.00;;;;;27.34;28.66;101196.91;4841885;29;45402;-54
2022/08/11 02:13:10;;;;;;;;;8.80;7.80;;;;;27.20;28.19;101192.13;4848140;29;45205;-56
2022/08/11 02:15:38;;;;;;;;;8.00;7.00;;;;;27.15;28.76;101182.97;4830466;29;45827;-56
2022/08/11 02:18:16;;;;;;;;;10.40;10.40;;;;;27.25;27.97;101193.19;4830629;29;45867;-58
2022/08/11 02:23:54;;;;;;;;;8.60;8.60;;;;;27.31;28.48;101189.09;4835815;29;45334;-55
2022/08/11 02:26:41;;;;;;;;;11.20;8.60;;;;;27.20;28.20;101196.94;4845130;29;45725;-57
2022/08/11 02:29:19;;;;;;;;;8.80;8.80;;;;;27.05;28.90;101184.84;4845277;29;45503;-58
2022/08/11 02:34:55;;;;;;;;;9.20;8.40;;;;;26.97;28.75;101198.81;4850354;29;45440;-57
2022/08/11 02:37:45;;;;;;;;;8.60;8.00;;;;;26.88;28.79;101191.06;4861615;29;45463;-56
2022/08/11 02:40:41;;;;;;;;;11.40;11.40;;;;;27.02;29.09;101196.75;4846535;29;45410;-55
2022/08/11 02:43:12;;;;;;;;;10.00;9.00;;;;;27.03;28.90;101191.94;4854507;29;45487;-52
2022/08/11 02:45:46;;;;;;;;;7.00;7.00;;;;;27.08;28.86;101186.19;4861639;29;46477;-57
2022/08/11 02:52:12;;;;;;;;;9.00;9.00;;;;;27.19;28.95;101193.28;4793959;29;45995;-56
2022/08/11 02:55:02;;;;;;;;;12.20;10.80;;;;;26.75;28.52;101119.56;4771017;29;45910;-53
2022/08/11 02:57:32;;;;;;;;;10.00;9.00;;;;;27.23;28.56;101192.66;4808321;29;48370;-55
2022/08/11 03:00:12;;;;;;;;;9.60;7.80;;;;;27.18;28.80;101186.00;4829262;29;45430;-57
2022/08/11 03:02:49;;;;;;;;;11.00;11.00;;;;;27.15;28.84;101183.78;4844666;29;45412;-56
2022/08/11 03:05:19;;;;;;;;;11.20;11.20;;;;;27.14;29.02;101187.75;4861789;29;45389;-53
2022/08/11 03:08:15;;;;;;;;;11.20;10.60;;;;;27.04;28.86;101182.34;4861165;29;45412;-55
2022/08/11 03:17:08;;;;;;;;;11.40;10.20;;;;;27.09;29.48;101201.13;4847336;29;45464;-56
2022/08/11 03:20:06;;;;;;;;;8.00;8.00;;;;;27.09;29.30;101193.50;4845033;29;46205;-55
2022/08/11 03:22:57;;;;;;;;;10.00;10.00;;;;;27.05;29.32;101190.47;4822660;29;45497;-54
2022/08/11 03:25:45;;;;;;;;;8.00;8.00;;;;;27.00;28.99;101192.56;4851197;29;45421;-56
2022/08/11 03:28:37;;;;;;;;;10.60;10.20;;;;;26.89;29.31;101172.22;4862546;29;45980;-55
2022/08/11 03:31:08;;;;;;;;;10.60;10.60;;;;;26.91;29.10;101173.59;4850079;29;46241;-55
2022/08/11 03:36:45;;;;;;;;;8.40;8.40;;;;;26.87;29.60;101186.59;4863879;29;45426;-57
2022/08/11 03:39:25;;;;;;;;;11.00;10.00;;;;;26.76;29.40;101179.50;4863947;29;45421;-55
2022/08/11 03:42:10;;;;;;;;;10.80;9.80;;;;;26.78;29.81;101180.84;4847799;29;46265;-55
2022/08/11 03:45:11;;;;;;;;;10.40;10.40;;;;;26.68;29.92;101185.84;4850276;29;45436;-55
2022/08/11 03:47:58;;;;;;;;;11.00;11.00;;;;;26.65;29.59;101187.31;4847554;29;45459;-55
2022/08/11 03:50:56;;;;;;;;;9.00;9.00;;;;;26.64;29.76;101182.84;4864266;29;45372;-54
2022/08/11 03:53:48;;;;;;;;;9.80;9.00;;;;;26.69;29.71;101193.16;4864104;29;46608;-56
2022/08/11 03:56:40;;;;;;;;;12.80;11.20;;;;;26.67;29.79;101196.28;4863848;29;45377;-57
2022/08/11 03:59:50;;;;;;;;;11.00;11.00;;;;;26.57;29.61;101191.66;4847217;29;45462;-54
2022/08/11 04:02:15;;;;;;;;;9.00;9.00;;;;;26.52;29.85;101180.53;4788253;29;45227;-54
2022/08/11 04:05:16;;;;;;;;;10.75;8.25;;;;;26.47;29.92;101187.06;4787410;29;45860;-54
2022/08/11 04:08:01;;;;;;;;;12.20;12.20;;;;;26.47;29.93;101178.63;4799443;29;45442;-57
2022/08/11 04:10:47;;;;;;;;;9.20;8.80;;;;;26.49;29.92;101181.97;4830181;29;45490;-55
2022/08/11 04:13:21;;;;;;;;;9.80;9.40;;;;;26.49;29.70;101175.50;4845039;29;45223;-52
2022/08/11 04:16:08;;;;;;;;;9.60;9.60;;;;;26.49;29.71;101193.25;4826567;29;45566;-55
2022/08/11 04:18:45;;;;;;;;;9.20;9.20;;;;;26.45;29.87;101174.44;4860119;29;45905;-55
2022/08/11 04:21:36;;;;;;;;;10.20;9.00;;;;;26.45;29.54;101186.56;4863535;29;45388;-51
2022/08/11 04:24:17;;;;;;;;;9.40;8.20;;;;;26.18;29.89;101147.91;4863554;29;45434;-52
2022/08/11 04:27:13;;;;;;;;;8.00;8.00;;;;;26.22;30.24;101191.19;4816736;29;47433;-54
2022/08/11 04:30:02;;;;;;;;;11.60;11.60;;;;;26.19;29.88;101195.41;4863289;29;45392;-56
2022/08/11 04:33:01;;;;;;;;;11.80;10.60;;;;;26.20;30.13;101193.44;4846273;29;45298;-56
2022/08/11 04:35:56;;;;;;;;;9.80;9.80;;;;;26.27;29.85;101182.66;4846124;29;45489;-57
2022/08/11 04:38:31;;;;;;;;;8.40;8.40;;;;;26.11;30.22;101170.81;4862924;29;46958;-56
2022/08/11 04:41:31;;;;;;;;;11.00;11.00;;;;;26.24;30.38;101191.69;4846000;29;45352;-57
2022/08/11 04:44:06;;;;;;;;;10.60;9.60;;;;;26.24;30.07;101194.50;4862114;29;45397;-54
2022/08/11 04:46:56;;;;;;;;;11.00;11.00;;;;;26.23;30.41;101204.94;4863423;29;45555;-55
2022/08/11 05:02:41;;;;;;;;;11.20;11.20;;;;;26.07;30.25;101198.72;4862715;29;45949;-54
2022/08/11 05:05:33;;;;;;;;;12.40;9.60;;;;;25.91;31.02;101195.31;4820782;29;45484;-57
2022/08/11 05:08:04;;;;;;;;;9.40;9.40;;;;;25.97;30.79;101201.69;4847119;29;45380;-56
2022/08/11 05:10:51;;;;;;;;;9.00;9.00;;;;;26.05;30.42;101198.19;4862781;29;45531;-56
2022/08/11 05:36:36;;;;;;;;;9.00;9.00;;;;;26.11;30.39;101227.06;4848270;29;45501;-56
2022/08/11 05:58:24;;;;;;;;;10.60;9.40;;;;;26.14;30.39;101237.69;4829324;29;45447;-56
2022/08/11 06:00:50;;;;;;;;;10.40;10.40;;;;;26.17;30.43;101233.44;4826797;29;45472;-56
2022/08/11 06:03:26;;;;;;;;;10.75;10.00;;;;;25.88;30.74;101190.28;4843427;29;45411;-54
2022/08/11 06:05:51;;;;;;;;;10.60;9.60;;;;;26.03;30.71;101214.53;4827189;29;45347;-56
2022/08/11 06:08:16;;;;;;;;;11.50;10.75;;;;;26.17;30.62;101241.88;4826270;29;46604;-55
2022/08/11 06:10:43;;;;;;;;;8.00;8.00;;;;;26.16;30.25;101231.75;4841857;29;45407;-55
2022/08/11 06:13:09;;;;;;;;;12.80;11.80;;;;;25.94;30.63;101200.31;4811190;29;45287;-56
2022/08/11 06:15:48;;;;;;;;;10.75;10.75;;;;;26.03;30.83;101239.81;4843497;29;45653;-56
2022/08/11 06:18:13;;;;;;;;;10.60;10.40;;;;;25.81;30.16;101216.00;4841836;29;46983;-55
2022/08/11 06:20:51;;;;;;;;;10.50;10.50;;;;;25.87;29.89;101215.91;4843403;29;45290;-54
2022/08/11 06:23:18;;;;;;;;;10.60;10.40;;;;;25.81;30.38;101207.56;4826535;29;45345;-54
2022/08/11 06:25:43;;;;;;;;;10.00;10.00;;;;;25.88;30.42;101214.78;4826886;29;45402;-56
2022/08/11 06:28:09;;;;;;;;;10.25;10.25;;;;;26.05;29.78;101233.91;4826276;29;45360;-57
2022/08/11 06:30:44;;;;;;;;;9.25;9.00;;;;;26.07;29.65;101234.44;4826444;29;45367;-54
2022/08/11 06:33:28;;;;;;;;;11.00;11.00;;;;;26.07;29.77;101242.88;4843079;29;45254;-57
2022/08/11 06:36:02;;;;;;;;;8.20;8.20;;;;;26.05;29.98;101248.81;4812093;29;45381;-55
2022/08/11 06:38:59;;;;;;;;;11.00;10.40;;;;;25.98;29.38;101237.94;4859237;29;46940;-55
2022/08/11 06:41:36;;;;;;;;;9.20;9.20;;;;;26.06;29.73;101239.22;4830415;29;45361;-56
2022/08/11 06:44:15;;;;;;;;;9.20;8.00;;;;;26.03;29.86;101239.00;4830444;29;45350;-56
2022/08/11 06:46:50;;;;;;;;;9.00;9.00;;;;;26.12;29.73;101240.81;4845503;29;45436;-53
2022/08/11 06:52:06;;;;;;;;;11.80;11.80;;;;;25.91;29.17;101219.78;4822047;29;46679;-53
2022/08/11 06:54:43;;;;;;;;;9.00;8.60;;;;;25.88;29.48;101215.59;4827744;29;45441;-55
2022/08/11 07:03:12;;;;;;;;;11.60;10.60;;;;;26.20;29.21;101246.88;4847661;29;45557;-55
2022/08/11 07:05:42;;;;;;;;;11.00;10.20;;;;;26.16;29.65;101248.63;4807250;29;45935;-53
2022/08/11 07:17:19;;;;;;;;;9.40;8.20;;;;;26.11;29.15;101221.44;4850634;29;45875;-51
2022/08/11 07:31:16;;;;;;;;;9.40;8.60;;;;;26.33;29.21;101246.13;4850866;29;45410;-55
2022/08/11 07:33:56;;;;;;;;;10.40;9.20;;;;;26.41;29.07;101241.75;4847660;29;46640;-51
2022/08/11 07:36:22;;;;;;;;;8.00;7.00;;;;;26.38;29.15;101223.56;4832955;29;45389;-54
2022/08/11 07:38:49;;;;;;;;;9.75;8.25;;;;;26.47;29.07;101228.47;4829077;29;45386;-50
2022/08/11 07:41:19;;;;;;;;;9.80;9.80;;;;;26.49;29.23;101227.00;4814639;29;45333;-53
2022/08/11 07:43:48;;;;;;;;;7.40;7.40;;;;;26.64;29.05;101237.13;4845165;29;46210;-54
2022/08/11 07:54:26;;;;;;;;;10.60;10.20;;;;;26.90;28.70;101222.59;4822593;29;45405;-51
2022/08/11 07:56:51;;;;;;;;;7.25;7.25;;;;;26.98;29.05;101231.47;4827932;29;45871;-53
2022/08/11 08:18:24;;;;;;;;;11.80;9.80;;;;;27.36;28.71;101222.78;4840596;29;45379;-55
2022/08/11 08:20:50;;;;;;;;;7.75;7.75;;;;;27.41;28.32;101222.69;4824618;29;45759;-57
2022/08/11 08:23:31;;;;;;;;;11.25;9.00;;;;;27.31;28.35;101203.16;4838322;29;46160;-55
2022/08/11 08:26:00;;;;;;;;;8.80;8.80;;;;;27.54;28.92;101225.78;4842581;29;45935;-57
2022/08/11 08:28:26;;;;;;;;;7.00;7.00;;;;;27.60;28.32;101224.56;4840332;29;45454;-60
2022/08/11 08:30:51;;;;;;;;;7.00;7.00;;;;;27.60;28.21;101218.91;4852686;29;45450;-59
2022/08/11 08:33:27;;;;;;;;;6.25;6.25;;;;;27.53;27.94;101204.41;4821384;29;45561;-58
2022/08/11 08:36:10;;;;;;;;;11.20;10.00;;;;;27.69;27.81;101216.19;4840646;29;45505;-55
2022/08/11 08:38:55;;;;;;;;;8.20;8.20;;;;;27.80;28.23;101223.22;4843485;29;45428;-59
2022/08/11 08:41:26;;;;;;;;;9.00;8.00;;;;;27.72;28.39;101210.75;4840833;29;45900;-57
2022/08/11 08:43:53;;;;;;;;;7.80;7.80;;;;;27.80;28.21;101214.78;4826971;29;45857;-58
2022/08/11 08:46:25;;;;;;;;;11.40;8.60;;;;;27.74;28.87;101191.50;4828861;29;46785;-53
2022/08/11 08:48:51;;;;;;;;;7.00;7.00;;;;;27.97;28.07;101227.38;4844924;29;45495;-58
2022/08/11 08:51:34;;;;;;;;;8.50;7.00;;;;;27.97;28.28;101228.19;4831129;29;45400;-58
2022/08/11 08:54:07;;;;;;;;;7.40;7.40;;;;;27.98;28.01;101227.06;4821528;29;48362;-51
2022/08/11 08:56:33;;;;;;;;;9.80;8.40;;;;;28.04;28.85;101224.94;4813354;29;46488;-51
2022/08/11 08:59:00;;;;;;;;;6.25;6.25;;;;;28.14;28.35;101227.50;4812506;29;45497;-50
2022/08/11 09:01:31;;;;;;;;;8.00;7.60;;;;;28.18;27.71;101224.03;4828031;29;45432;-50
2022/08/11 09:03:57;;;;;;;;;10.00;9.20;;;;;28.25;27.51;101232.91;4844859;29;45425;-55
2022/08/11 09:06:22;;;;;;;;;7.00;7.00;;;;;28.16;27.16;101204.59;4812478;29;46037;-54
2022/08/11 09:08:48;;;;;;;;;9.00;7.75;;;;;28.37;27.68;101226.66;4812869;29;45320;-50
2022/08/11 09:13:57;;;;;;;;;6.00;6.00;;;;;28.54;27.21;101235.25;4830470;29;45447;-51
2022/08/11 09:16:23;;;;;;;;;7.75;7.50;;;;;28.60;27.20;101226.66;4811865;29;46477;-53
2022/08/11 09:18:48;;;;;;;;;5.75;5.75;;;;;28.56;27.14;101209.53;4856669;29;45667;-53
2022/08/11 09:21:14;;;;;;;;;6.75;6.75;;;;;28.72;26.54;101229.72;4845604;29;45477;-51
2022/08/11 09:29:09;;;;;;;;;9.00;7.00;;;;;28.95;26.58;101216.38;4844469;29;45386;-58
2022/08/11 09:31:35;;;;;;;;;6.40;6.40;;;;;29.03;26.67;101214.72;4862389;29;45360;-57
2022/08/11 09:34:00;;;;;;;;;9.25;7.50;;;;;28.93;26.23;101183.97;4829039;29;45729;-51
2022/08/11 09:41:54;;;;;;;;;7.60;7.60;;;;;29.16;26.12;101183.84;4848814;29;45381;-52
2022/08/11 09:47:04;;;;;;;;;7.20;7.00;;;;;29.35;25.26;101195.69;4834978;29;45363;-54
2022/08/11 09:49:29;;;;;;;;;7.40;6.40;;;;;29.42;25.51;101192.38;4828242;29;45421;-51
2022/08/11 09:51:55;;;;;;;;;7.00;7.00;;;;;29.54;25.52;101205.91;4830521;29;45665;-55
2022/08/11 09:54:21;;;;;;;;;7.50;6.75;;;;;29.55;25.95;101201.91;4862681;29;45639;-53
2022/08/11 09:59:31;;;;;;;;;9.20;7.80;;;;;29.57;25.15;101187.44;4862387;29;45981;-54
2022/08/11 10:01:59;;;;;;;;;5.25;5.25;;;;;29.55;24.60;101176.47;4862580;29;45351;-55
2022/08/11 10:04:50;;;;;;;;;7.40;7.40;;;;;29.74;24.34;101200.75;4862110;29;45601;-51
2022/08/11 10:07:18;;;;;;;;;5.80;5.80;;;;;29.72;24.43;101188.94;4841784;29;46576;-53
2022/08/11 10:09:51;;;;;;;;;6.00;6.00;;;;;29.84;24.25;101196.75;4844811;29;45401;-53
2022/08/11 10:12:25;;;;;;;;;8.80;6.00;;;;;29.92;24.17;101195.09;4830296;29;45478;-52
2022/08/11 10:20:29;;;;;;;;;6.80;6.80;;;;;30.01;23.64;101176.94;4861987;29;45255;-51
2022/08/11 10:28:23;;;;;;;;;9.00;8.20;;;;;30.17;23.82;101170.78;4834213;29;45301;-54
2022/08/11 10:36:17;;;;;;;;;8.20;8.00;;;;;30.34;23.13;101160.56;4823836;29;45206;-60
2022/08/11 10:38:44;;;;;;;;;6.60;6.60;;;;;30.46;23.28;101162.72;4810226;29;46587;-61
2022/08/11 10:43:54;;;;;;;;;7.40;7.00;;;;;30.53;23.44;101131.88;4831303;29;46002;-61
2022/08/11 10:49:03;;;;;;;;;9.00;9.00;;;;;30.77;22.96;101130.44;4829627;29;45873;-61
2022/08/11 10:59:42;;;;;;;;;8.00;8.00;;;;;31.18;22.50;101131.69;4842838;29;45763;-64
2022/08/11 11:02:12;;;;;;;;;10.00;10.00;;;;;31.36;22.44;101126.75;4840107;29;45475;-63
2022/08/11 11:04:57;;;;;;;;;7.00;5.40;;;;;31.46;22.03;101141.69;4823342;29;45649;-61
2022/08/11 11:07:30;;;;;;;;;10.60;8.40;;;;;31.48;22.46;101120.31;4853399;29;45857;-60
2022/08/11 11:10:01;;;;;;;;;7.80;7.80;;;;;31.56;22.54;101132.75;4840070;29;46857;-59
2022/08/11 11:18:10;;;;;;;;;8.40;8.40;;;;;31.86;22.31;101121.31;4843062;29;45507;-60
2022/08/11 11:20:47;;;;;;;;;6.60;6.60;;;;;31.95;21.48;101124.06;4839921;29;47400;-62
2022/08/11 11:23:31;;;;;;;;;8.40;7.60;;;;;32.06;22.01;101118.78;4856791;29;45638;-60
2022/08/11 11:26:05;;;;;;;;;10.40;7.80;;;;;32.13;22.11;101121.03;4856755;29;45475;-60
2022/08/11 11:28:45;;;;;;;;;9.40;7.80;;;;;32.09;21.66;101094.53;4856217;29;45526;-62
2022/08/11 11:31:49;;;;;;;;;10.20;7.40;;;;;32.26;21.71;101107.69;4829137;29;46515;-61
2022/08/11 11:34:21;;;;;;;;;7.00;7.00;;;;;32.37;20.56;101111.75;4832411;29;45396;-62
2022/08/11 11:36:47;;;;;;;;;9.00;8.20;;;;;32.08;21.55;101071.03;4829265;29;45771;-61
2022/08/11 11:39:33;;;;;;;;;9.00;9.00;;;;;32.21;20.39;101071.84;4818672;29;45621;-61
2022/08/11 11:42:01;;;;;;;;;11.00;9.00;;;;;32.39;20.71;101117.91;4826476;29;46271;-61
2022/08/11 11:44:27;;;;;;;;;8.80;7.00;;;;;32.36;20.61;101106.41;4824615;29;45836;-59
2022/08/11 11:46:53;;;;;;;;;9.75;9.25;;;;;32.30;20.88;101080.25;4822817;29;45424;-58
2022/08/11 11:49:21;;;;;;;;;9.00;9.00;;;;;32.54;19.93;101099.34;4825733;29;45639;-62
2022/08/11 11:51:47;;;;;;;;;7.60;7.60;;;;;32.59;20.38;101092.59;4828424;29;45556;-61
2022/08/11 11:54:16;;;;;;;;;9.00;9.00;;;;;32.56;20.71;101097.00;4828364;29;45488;-61
2022/08/11 11:56:42;;;;;;;;;9.00;8.20;;;;;32.65;20.75;101087.53;4807768;29;45700;-59
2022/08/11 12:01:52;;;;;;;;;9.00;9.00;;;;;32.97;20.73;101093.44;4838237;29;45914;-59
2022/08/11 12:04:19;;;;;;;;;9.20;8.00;;;;;33.07;20.28;101092.94;4842470;29;45543;-59
2022/08/11 12:06:44;;;;;;;;;6.80;6.80;;;;;33.13;20.31;101085.81;4827477;29;45976;-60
2022/08/11 12:09:10;;;;;;;;;9.25;9.25;;;;;33.15;19.97;101093.16;4842978;29;45601;-58
2022/08/11 12:14:20;;;;;;;;;8.80;8.80;;;;;33.25;20.34;101075.59;4857774;29;45461;-55
2022/08/11 12:16:46;;;;;;;;;7.00;7.00;;;;;33.14;19.84;101058.22;4859557;29;45805;-60
2022/08/11 12:19:15;;;;;;;;;9.20;9.20;;;;;33.26;20.31;101061.03;4827299;29;45449;-61
2022/08/11 12:27:19;;;;;;;;;8.20;7.20;;;;;33.41;19.79;101081.34;4826899;29;46783;-60
2022/08/11 12:27:20;;;;;;;;;7.20;7.20;;;;;33.58;19.91;101071.69;4838156;29;45859;-62
2022/08/11 12:29:51;;;;;;;;;7.40;7.40;;;;;33.62;19.85;101068.97;4820012;29;45636;-60
2022/08/11 12:32:18;;;;;;;;;11.40;11.40;;;;;33.75;20.30;101069.72;4826058;29;45905;-61
2022/08/11 12:34:44;;;;;;;;;8.60;8.60;;;;;33.86;19.61;101068.00;4795602;29;45638;-61
2022/08/11 12:37:11;;;;;;;;;9.00;7.75;;;;;33.83;19.22;101043.13;4834620;29;45572;-60
2022/08/11 12:45:27;;;;;;;;;9.00;8.40;;;;;34.11;19.28;101044.25;4843983;29;45695;-61
2022/08/11 12:54:05;;;;;;;;;8.00;7.60;;;;;34.38;18.81;101042.50;4830516;29;45438;-60
2022/08/11 13:05:00;;;;;;;;;8.40;8.40;;;;;34.70;18.99;101036.78;4844837;29;45715;-56
2022/08/11 13:07:26;;;;;;;;;9.40;8.60;;;;;34.73;18.89;101023.81;4826487;29;45485;-57
2022/08/11 13:09:52;;;;;;;;;8.00;8.00;;;;;34.91;18.52;101021.34;4841772;29;45783;-54
2022/08/11 13:15:03;;;;;;;;;8.00;8.00;;;;;35.06;18.31;101035.91;4843073;29;45430;-56
2022/08/11 13:17:28;;;;;;;;;6.80;6.80;;;;;35.23;18.27;101021.25;4841731;29;45452;-57
2022/08/11 13:19:56;;;;;;;;;9.50;8.50;;;;;35.13;18.10;101007.56;4826860;29;46065;-57
2022/08/11 13:22:23;;;;;;;;;8.40;7.20;;;;;35.27;17.89;101022.13;4841993;29;45731;-55
2022/08/11 13:24:49;;;;;;;;;6.80;6.80;;;;;35.33;18.37;101025.50;4858377;29;46132;-54
2022/08/11 13:27:15;;;;;;;;;10.00;10.00;;;;;35.47;18.37;101027.00;4810423;29;45617;-55
2022/08/11 13:29:41;;;;;;;;;6.80;6.80;;;;;35.44;18.03;101002.91;4823010;29;45521;-57
2022/08/11 13:32:07;;;;;;;;;9.75;9.75;;;;;35.66;17.53;101027.00;4823344;29;45877;-54
2022/08/11 13:34:34;;;;;;;;;15.50;13.50;;;;;35.58;17.70;101010.88;4823059;29;46493;-58
2022/08/11 13:37:00;;;;;;;;;8.80;8.80;;;;;35.61;17.68;101013.03;4804592;29;47522;-58
2022/08/11 13:39:27;;;;;;;;;5.80;5.00;;;;;35.63;18.04;101009.81;4813775;29;45617;-57
2022/08/11 13:41:54;;;;;;;;;8.20;8.00;;;;;35.71;18.02;101003.03;4830999;29;45659;-53
2022/08/11 13:44:20;;;;;;;;;8.40;8.20;;;;;35.76;17.99;100985.59;4823076;29;46738;-57
2022/08/11 13:46:45;;;;;;;;;8.50;8.50;;;;;35.86;17.85;100983.28;4839496;29;45480;-56
2022/08/11 13:49:11;;;;;;;;;8.50;8.25;;;;;35.79;17.84;100984.00;4822876;29;45691;-56
2022/08/11 13:51:38;;;;;;;;;8.40;8.40;;;;;35.90;17.21;101004.16;4840216;29;45787;-57
2022/08/11 13:54:11;;;;;;;;;8.40;8.40;;;;;35.97;17.43;101003.44;4857929;29;46464;-55
2022/08/11 13:56:38;;;;;;;;;7.00;7.00;;;;;35.94;18.16;100983.03;4841417;29;45952;-56
2022/08/11 13:59:04;;;;;;;;;7.00;7.00;;;;;36.34;17.43;101002.88;4841156;29;45501;-55
2022/08/11 14:01:32;;;;;;;;;8.00;7.00;;;;;36.54;16.80;101000.69;4840976;29;45625;-55
2022/08/11 14:04:41;;;;;;;;;8.60;8.60;;;;;36.72;17.30;101009.59;4856916;29;45922;-52
2022/08/11 14:07:08;;;;;;;;;7.00;7.00;;;;;37.15;16.18;101009.34;4844608;29;45426;-54
2022/08/11 14:09:36;;;;;;;;;8.20;6.40;;;;;37.78;16.21;100991.63;4858026;29;46184;-54
2022/08/11 14:14:50;;;;;;;;;7.20;7.20;;;;;39.05;15.42;100974.50;4829506;29;45954;-52
2022/08/11 14:17:16;;;;;;;;;6.40;6.00;;;;;39.65;14.64;100971.34;4825501;29;45417;-52
2022/08/11 14:19:41;;;;;;;;;5.00;5.00;;;;;40.30;13.62;100994.31;4825314;29;45461;-54
2022/08/11 14:22:07;;;;;;;;;9.25;7.50;;;;;40.86;14.58;100964.22;4778379;29;45766;-56
2022/08/11 14:24:34;;;;;;;;;9.50;9.50;;;;;41.28;13.25;100975.97;4835933;29;47414;-54
2022/08/11 14:27:00;;;;;;;;;7.60;7.60;;;;;42.11;13.45;100965.88;4816230;29;45495;-62
2022/08/11 14:29:26;;;;;;;;;5.00;5.00;;;;;43.02;12.95;100968.56;4840040;29;45546;-60
2022/08/11 14:31:57;;;;;;;;;7.40;6.00;;;;;43.71;12.18;100953.09;4824008;29;45637;-62
2022/08/11 14:34:25;;;;;;;;;8.00;7.00;;;;;44.07;11.61;100953.72;4839584;29;45916;-65
2022/08/11 14:36:52;;;;;;;;;8.80;8.80;;;;;44.60;11.42;100962.63;4823760;29;45853;-67
2022/08/11 14:39:22;;;;;;;;;7.00;7.00;;;;;44.81;11.00;100967.16;4809976;29;45735;-61
2022/08/11 14:47:18;;;;;;;;;6.80;6.80;;;;;46.37;10.71;100944.34;4841164;29;45493;-60
2022/08/11 14:49:44;;;;;;;;;7.00;7.00;;;;;46.99;9.76;100957.06;4824487;29;45497;-59
2022/08/11 14:52:14;;;;;;;;;9.00;9.00;;;;;47.04;10.17;100939.09;4838607;29;45466;-56
2022/08/11 14:57:27;;;;;;;;;7.20;7.20;;;;;48.14;9.55;100948.69;4841999;29;45774;-60
2022/08/11 14:59:52;;;;;;;;;6.00;6.00;;;;;48.14;9.09;100942.88;4839934;29;45850;-60
2022/08/11 15:05:03;;;;;;;;;7.40;7.40;;;;;47.63;8.95;100944.63;4841862;29;46413;-59
2022/08/11 15:07:32;;;;;;;;;6.60;6.60;;;;;47.31;9.11;100931.97;4855864;29;45442;-59
2022/08/11 15:09:59;;;;;;;;;10.00;9.00;;;;;47.31;9.72;100920.38;4823504;29;45450;-58
2022/08/11 15:12:25;;;;;;;;;11.00;9.00;;;;;47.16;10.05;100917.13;4824445;29;45536;-59
2022/08/11 15:17:35;;;;;;;;;8.00;6.60;;;;;46.96;9.62;100923.94;4841417;29;45773;-58
2022/08/11 15:25:35;;;;;;;;;10.40;10.20;;;;;46.20;9.46;100918.28;4858690;29;45495;-56
2022/08/11 15:38:59;;;;;;;;;11.00;11.00;;;;;44.03;10.82;100896.00;4847577;29;45929;-61
2022/08/11 15:47:00;;;;;;;;;12.60;11.00;;;;;43.23;11.15;100891.56;4844326;29;45447;-57
2022/08/11 15:49:30;;;;;;;;;12.00;9.60;;;;;43.13;11.20;100910.69;4859110;29;45421;-60
2022/08/11 15:52:09;;;;;;;;;10.80;10.80;;;;;42.72;11.96;100921.13;4841212;29;46053;-59
2022/08/11 15:54:38;;;;;;;;;8.00;8.00;;;;;42.54;11.51;100909.81;4827254;29;45983;-60
2022/08/11 15:57:04;;;;;;;;;9.00;9.00;;;;;42.48;11.90;100912.34;4842527;29;46413;-59
2022/08/11 16:05:06;;;;;;;;;9.60;9.60;;;;;42.36;12.38;100902.16;4848101;29;45728;-59
2022/08/11 16:07:34;;;;;;;;;8.40;8.40;;;;;42.23;12.09;100896.16;4841939;29;47862;-59
2022/08/11 16:10:07;;;;;;;;;10.60;10.60;;;;;42.22;12.60;100891.66;4827280;29;45439;-60
2022/08/11 16:12:35;;;;;;;;;10.40;9.00;;;;;41.71;12.18;100897.91;4828047;29;45792;-62
2022/08/11 16:17:50;;;;;;;;;6.80;6.80;;;;;40.89;12.75;100875.03;4826676;29;46478;-60
2022/08/11 16:20:19;;;;;;;;;8.00;8.00;;;;;40.79;12.47;100881.63;4824340;29;45441;-61
2022/08/11 16:22:46;;;;;;;;;7.20;7.20;;;;;40.68;13.10;100864.44;4850467;29;45424;-60
2022/08/11 16:25:23;;;;;;;;;12.00;11.00;;;;;40.76;12.74;100903.41;4827417;29;45440;-60
2022/08/11 16:27:51;;;;;;;;;7.60;6.80;;;;;40.60;13.31;100886.66;4826046;29;45711;-61